createdAt,value
2019-03-25T00:00:22.929Z,54.60
2019-03-25T00:01:28.470Z,55.40
2019-03-25T00:02:30.526Z,54.80
2019-03-25T00:03:32.414Z,48.80
2019-03-25T00:04:34.774Z,47.20
2019-03-25T00:05:37.037Z,48.60
2019-03-25T00:06:39.119Z,48.80
2019-03-25T00:07:41.433Z,50.00
2019-03-25T00:08:43.660Z,49.80
2019-03-25T00:09:45.940Z,48.20
2019-03-25T00:10:47.966Z,51.00
2019-03-25T00:11:50.051Z,52.00
2019-03-25T00:12:51.964Z,51.20
2019-03-25T00:13:54.146Z,49.80
2019-03-25T00:14:56.270Z,50.60
2019-03-25T00:15:58.289Z,50.60
2019-03-25T00:17:00.683Z,48.60
2019-03-25T00:18:02.970Z,50.20
2019-03-25T00:19:04.759Z,50.80
2019-03-25T00:20:07.441Z,50.00
2019-03-25T00:21:09.654Z,51.00
2019-03-25T00:22:11.376Z,49.60
2019-03-25T00:23:13.575Z,49.00
2019-03-25T00:24:15.903Z,50.60
2019-03-25T00:25:17.595Z,51.60
2019-03-25T00:26:19.732Z,51.00
2019-03-25T00:27:21.911Z,51.80
2019-03-25T00:28:24.124Z,50.80
2019-03-25T00:29:29.570Z,49.80
2019-03-25T00:30:31.672Z,49.40
2019-03-25T00:31:33.961Z,53.40
2019-03-25T00:32:36.098Z,50.60
2019-03-25T00:33:37.777Z,50.80
2019-03-25T00:34:39.750Z,49.60
2019-03-25T00:35:41.957Z,49.00
2019-03-25T00:36:43.645Z,48.60
2019-03-25T00:37:45.893Z,48.40
2019-03-25T00:38:47.859Z,48.00
2019-03-25T00:39:50.735Z,49.40
2019-03-25T00:40:52.684Z,47.80
2019-03-25T00:41:54.703Z,47.80
2019-03-25T00:42:56.831Z,47.40
2019-03-25T00:43:58.957Z,49.40
2019-03-25T00:45:02.699Z,50.00
2019-03-25T00:46:04.632Z,50.00
2019-03-25T00:47:06.682Z,49.80
2019-03-25T00:48:08.651Z,47.20
2019-03-25T00:49:10.617Z,49.40
2019-03-25T00:50:13.264Z,50.80
2019-03-25T00:51:15.858Z,51.20
2019-03-25T00:52:18.674Z,51.60
2019-03-25T00:53:20.770Z,52.60
2019-03-25T00:54:22.466Z,49.80
2019-03-25T00:55:24.168Z,48.60
2019-03-25T00:56:26.296Z,48.80
2019-03-25T00:57:28.136Z,50.60
2019-03-25T00:58:31.378Z,50.00
2019-03-25T00:59:33.328Z,49.00
2019-03-25T01:00:35.386Z,49.00
2019-03-25T01:01:37.478Z,49.80
2019-03-25T01:02:39.555Z,48.60
2019-03-25T01:03:41.860Z,47.40
2019-03-25T01:04:44.136Z,50.60
2019-03-25T01:05:46.251Z,48.60
2019-03-25T01:06:50.462Z,47.40
2019-03-25T01:07:52.704Z,49.60
2019-03-25T01:08:55.100Z,50.80
2019-03-25T01:09:56.923Z,54.20
2019-03-25T01:10:59.021Z,52.20
2019-03-25T01:12:01.354Z,50.00
2019-03-25T01:13:03.315Z,50.00
2019-03-25T01:14:05.601Z,52.40
2019-03-25T01:15:08.573Z,49.20
2019-03-25T01:16:10.316Z,48.80
2019-03-25T01:17:12.677Z,48.60
2019-03-25T01:18:17.075Z,49.60
2019-03-25T01:19:18.056Z,47.60
2019-03-25T01:20:20.146Z,50.40
2019-03-25T01:21:22.243Z,50.60
2019-03-25T01:22:24.279Z,49.20
2019-03-25T01:23:26.427Z,49.00
2019-03-25T01:24:28.497Z,46.00
2019-03-25T01:25:31.827Z,48.60
2019-03-25T01:26:33.997Z,46.40
2019-03-25T01:27:35.821Z,47.60
2019-03-25T01:28:38.061Z,45.00
2019-03-25T01:29:40.211Z,47.20
2019-03-25T01:30:41.951Z,49.60
2019-03-25T01:31:44.076Z,47.20
2019-03-25T01:32:46.296Z,49.00
2019-03-25T01:33:48.220Z,50.20
2019-03-25T01:34:50.168Z,48.40
2019-03-25T01:35:53.963Z,48.00
2019-03-25T01:36:55.953Z,49.60
2019-03-25T01:37:57.954Z,49.40
2019-03-25T01:38:59.919Z,49.20
2019-03-25T01:40:05.198Z,48.60
2019-03-25T01:41:07.511Z,48.80
2019-03-25T01:42:11.246Z,48.00
2019-03-25T01:43:13.152Z,47.00
2019-03-25T01:44:15.359Z,49.60
2019-03-25T01:45:17.302Z,48.00
2019-03-25T01:46:19.294Z,48.00
2019-03-25T01:47:21.272Z,49.20
2019-03-25T01:48:23.208Z,48.60
2019-03-25T01:49:24.943Z,49.00
2019-03-25T01:50:27.098Z,51.20
2019-03-25T01:51:29.192Z,50.40
2019-03-25T01:52:32.129Z,49.60
2019-03-25T01:53:34.353Z,49.00
2019-03-25T01:54:36.409Z,49.00
2019-03-25T01:55:38.437Z,49.00
2019-03-25T01:56:40.733Z,49.40
2019-03-25T01:57:42.859Z,49.00
2019-03-25T01:58:44.930Z,50.60
2019-03-25T01:59:46.985Z,49.00
2019-03-25T02:00:48.656Z,49.00
2019-03-25T02:01:50.728Z,49.00
2019-03-25T02:02:52.736Z,52.00
2019-03-25T02:03:54.831Z,49.60
2019-03-25T02:04:56.936Z,50.40
2019-03-25T02:05:59.024Z,49.40
2019-03-25T02:07:00.931Z,50.20
2019-03-25T02:08:03.119Z,49.40
2019-03-25T02:09:07.659Z,50.20
2019-03-25T02:10:10.291Z,51.00
2019-03-25T02:11:12.791Z,50.00
2019-03-25T02:12:14.428Z,51.00
2019-03-25T02:13:16.217Z,49.40
2019-03-25T02:14:18.355Z,51.40
2019-03-25T02:15:21.235Z,50.00
2019-03-25T02:16:23.173Z,49.20
2019-03-25T02:17:25.321Z,52.00
2019-03-25T02:18:28.274Z,49.20
2019-03-25T02:19:30.669Z,48.40
2019-03-25T02:20:32.850Z,51.00
2019-03-25T02:21:34.847Z,48.60
2019-03-25T02:22:36.932Z,49.80
2019-03-25T02:23:39.187Z,50.80
2019-03-25T02:24:41.153Z,50.40
2019-03-25T02:25:43.116Z,51.80
2019-03-25T02:26:45.405Z,52.00
2019-03-25T02:27:47.571Z,50.00
2019-03-25T02:28:50.887Z,52.60
2019-03-25T02:29:53.071Z,52.60
2019-03-25T02:30:54.748Z,52.40
2019-03-25T02:31:56.858Z,51.20
2019-03-25T02:32:58.879Z,51.00
2019-03-25T02:34:00.587Z,50.40
2019-03-25T02:35:05.178Z,53.00
2019-03-25T02:36:07.172Z,51.60
2019-03-25T02:37:08.852Z,50.60
2019-03-25T02:38:10.998Z,51.40
2019-03-25T02:39:13.176Z,53.40
2019-03-25T02:40:15.009Z,51.20
2019-03-25T02:41:18.886Z,51.60
2019-03-25T02:42:23.276Z,53.60
2019-03-25T02:43:25.591Z,49.40
2019-03-25T02:44:27.689Z,49.60
2019-03-25T02:45:29.702Z,49.00
2019-03-25T02:46:31.946Z,51.20
2019-03-25T02:47:33.948Z,49.00
2019-03-25T02:48:35.991Z,49.00
2019-03-25T02:49:37.973Z,49.60
2019-03-25T02:50:40.020Z,51.40
2019-03-25T02:51:43.883Z,50.80
2019-03-25T02:52:45.894Z,47.60
2019-03-25T02:53:47.947Z,49.00
2019-03-25T02:54:49.697Z,49.00
2019-03-25T02:55:51.875Z,47.60
2019-03-25T02:56:53.978Z,50.40
2019-03-25T02:57:56.037Z,47.40
2019-03-25T02:58:58.146Z,45.60
2019-03-25T03:00:00.550Z,42.40
2019-03-25T03:01:05.006Z,44.60
2019-03-25T03:02:07.273Z,46.00
2019-03-25T03:03:09.564Z,44.00
2019-03-25T03:04:11.262Z,42.00
2019-03-25T03:05:13.581Z,43.00
2019-03-25T03:06:15.606Z,43.20
2019-03-25T03:07:17.960Z,42.80
2019-03-25T03:08:20.065Z,46.20
2019-03-25T03:09:21.981Z,44.60
2019-03-25T03:10:23.739Z,45.60
2019-03-25T03:11:25.995Z,41.20
2019-03-25T03:12:28.435Z,43.00
2019-03-25T03:13:30.798Z,47.40
2019-03-25T03:14:33.278Z,42.40
2019-03-25T03:15:35.966Z,44.60
2019-03-25T03:16:38.133Z,42.80
2019-03-25T03:17:40.162Z,44.80
2019-03-25T03:18:42.165Z,41.40
2019-03-25T03:19:44.328Z,43.00
2019-03-25T03:20:46.357Z,42.00
2019-03-25T03:21:48.335Z,42.00
2019-03-25T03:22:50.406Z,40.80
2019-03-25T03:23:52.559Z,44.00
2019-03-25T03:24:54.199Z,42.60
2019-03-25T03:25:58.223Z,42.00
2019-03-25T03:27:00.448Z,42.80
2019-03-25T03:28:02.526Z,43.20
2019-03-25T03:29:04.657Z,41.80
2019-03-25T03:30:07.096Z,41.00
2019-03-25T03:31:08.870Z,40.60
2019-03-25T03:32:10.897Z,41.60
2019-03-25T03:33:12.854Z,42.80
2019-03-25T03:34:15.198Z,41.40
2019-03-25T03:35:17.305Z,40.40
2019-03-25T03:36:19.530Z,40.20
2019-03-25T03:37:21.864Z,40.20
2019-03-25T03:38:23.836Z,41.20
2019-03-25T03:39:25.783Z,40.00
2019-03-25T03:40:27.672Z,41.40
2019-03-25T03:41:29.979Z,39.20
2019-03-25T03:42:32.456Z,39.80
2019-03-25T03:43:34.133Z,41.80
2019-03-25T03:44:36.198Z,39.00
2019-03-25T03:45:37.895Z,40.00
2019-03-25T03:46:39.876Z,38.00
2019-03-25T03:47:42.087Z,41.40
2019-03-25T03:48:43.739Z,37.40
2019-03-25T03:49:45.818Z,40.20
2019-03-25T03:50:48.383Z,38.20
2019-03-25T03:51:53.394Z,41.20
2019-03-25T03:52:56.738Z,38.60
2019-03-25T03:53:58.821Z,38.80
2019-03-25T03:55:00.883Z,41.00
2019-03-25T03:56:12.630Z,41.20
2019-03-25T03:57:08.023Z,45.60
2019-03-25T03:58:10.533Z,44.40
2019-03-25T03:59:14.683Z,45.60
2019-03-25T04:00:25.594Z,46.00
2019-03-25T04:01:28.112Z,50.40
2019-03-25T04:02:30.328Z,52.20
2019-03-25T04:03:32.312Z,50.60
2019-03-25T04:04:34.263Z,76.60
2019-03-25T04:05:36.472Z,67.80
2019-03-25T04:06:39.261Z,56.20
2019-03-25T04:07:41.291Z,53.00
2019-03-25T04:08:43.398Z,52.00
2019-03-25T04:09:45.283Z,68.80
2019-03-25T04:10:47.366Z,72.80
2019-03-25T04:11:49.540Z,51.00
2019-03-25T04:12:51.284Z,51.20
2019-03-25T04:13:53.624Z,51.20
2019-03-25T04:14:55.737Z,48.80
2019-03-25T04:16:01.266Z,50.00
2019-03-25T04:17:02.197Z,50.00
2019-03-25T04:18:04.520Z,46.20
2019-03-25T04:19:06.606Z,45.00
2019-03-25T04:20:09.040Z,44.60
2019-03-25T04:21:11.213Z,47.60
2019-03-25T04:22:12.994Z,46.20
2019-03-25T04:23:15.093Z,44.00
2019-03-25T04:24:16.771Z,48.00
2019-03-25T04:25:18.672Z,49.00
2019-03-25T04:26:28.213Z,49.60
2019-03-25T04:27:24.764Z,49.40
2019-03-25T04:28:26.850Z,51.00
2019-03-25T04:29:28.848Z,48.80
2019-03-25T04:30:30.833Z,48.60
2019-03-25T04:31:32.478Z,47.60
2019-03-25T04:32:34.530Z,46.00
2019-03-25T04:33:36.757Z,49.00
2019-03-25T04:34:38.431Z,50.00
2019-03-25T04:35:40.477Z,50.60
2019-03-25T04:36:42.357Z,49.00
2019-03-25T04:37:45.570Z,52.20
2019-03-25T04:38:47.608Z,51.40
2019-03-25T04:39:49.570Z,50.40
2019-03-25T04:40:51.643Z,49.00
2019-03-25T04:41:53.762Z,48.00
2019-03-25T04:42:55.555Z,48.60
2019-03-25T04:43:57.725Z,48.20
2019-03-25T04:44:59.708Z,47.20
2019-03-25T04:46:01.626Z,48.80
2019-03-25T04:47:03.991Z,49.20
2019-03-25T04:48:06.063Z,48.60
2019-03-25T04:49:07.953Z,47.00
2019-03-25T04:50:10.392Z,49.60
2019-03-25T04:51:12.129Z,49.40
2019-03-25T04:52:14.259Z,48.00
2019-03-25T04:53:16.330Z,47.00
2019-03-25T04:54:17.955Z,46.40
2019-03-25T04:55:19.893Z,45.20
2019-03-25T04:56:21.926Z,47.00
2019-03-25T04:57:24.117Z,51.60
2019-03-25T04:58:25.836Z,50.80
2019-03-25T04:59:27.873Z,49.60
2019-03-25T05:00:35.777Z,53.60
2019-03-25T05:01:37.835Z,51.80
2019-03-25T05:02:40.227Z,48.60
2019-03-25T05:03:42.345Z,47.00
2019-03-25T05:04:44.577Z,49.40
2019-03-25T05:05:46.521Z,48.00
2019-03-25T05:06:49.769Z,47.00
2019-03-25T05:07:51.893Z,46.60
2019-03-25T05:08:55.609Z,49.40
2019-03-25T05:09:57.719Z,47.00
2019-03-25T05:10:59.758Z,48.40
2019-03-25T05:12:01.731Z,52.00
2019-03-25T05:13:04.224Z,52.60
2019-03-25T05:14:06.401Z,53.40
2019-03-25T05:15:08.542Z,55.60
2019-03-25T05:16:10.849Z,54.40
2019-03-25T05:17:12.917Z,53.80
2019-03-25T05:18:15.145Z,52.80
2019-03-25T05:19:17.031Z,53.00
2019-03-25T05:20:19.120Z,50.20
2019-03-25T05:21:21.435Z,51.00
2019-03-25T05:22:23.880Z,50.20
2019-03-25T05:23:25.874Z,48.80
2019-03-25T05:24:28.114Z,49.60
2019-03-25T05:25:31.709Z,51.40
2019-03-25T05:26:34.664Z,50.00
2019-03-25T05:27:36.440Z,48.60
2019-03-25T05:28:38.518Z,48.00
2019-03-25T05:29:40.674Z,48.80
2019-03-25T05:30:42.751Z,49.00
2019-03-25T05:31:44.847Z,50.20
2019-03-25T05:32:49.159Z,48.40
2019-03-25T05:33:50.845Z,49.60
2019-03-25T05:34:53.149Z,47.80
2019-03-25T05:35:55.273Z,48.00
2019-03-25T05:36:57.294Z,52.20
2019-03-25T05:37:59.088Z,49.40
2019-03-25T05:39:01.068Z,49.60
2019-03-25T05:40:03.975Z,46.40
2019-03-25T05:41:06.003Z,46.40
2019-03-25T05:42:08.310Z,46.00
2019-03-25T05:43:09.967Z,46.80
2019-03-25T05:44:14.211Z,42.80
2019-03-25T05:45:16.193Z,43.40
2019-03-25T05:46:17.872Z,44.00
2019-03-25T05:47:21.552Z,40.60
2019-03-25T05:48:23.645Z,41.60
2019-03-25T05:49:25.736Z,38.00
2019-03-25T05:50:29.516Z,39.20
2019-03-25T05:51:31.163Z,39.00
2019-03-25T05:52:33.145Z,40.20
2019-03-25T05:53:35.099Z,41.40
2019-03-25T05:54:37.071Z,43.20
2019-03-25T05:55:40.876Z,37.40
2019-03-25T05:56:42.999Z,39.40
2019-03-25T05:57:44.670Z,38.00
2019-03-25T05:58:46.751Z,40.80
2019-03-25T05:59:48.792Z,39.20
2019-03-25T06:00:50.848Z,41.00
2019-03-25T06:01:53.033Z,43.00
2019-03-25T06:02:55.046Z,41.00
2019-03-25T06:03:57.119Z,40.00
2019-03-25T06:04:59.088Z,42.80
2019-03-25T06:06:01.218Z,44.80
2019-03-25T06:07:02.919Z,49.60
2019-03-25T06:08:05.059Z,48.00
2019-03-25T06:09:07.103Z,43.00
2019-03-25T06:10:10.148Z,49.40
2019-03-25T06:11:12.035Z,52.20
2019-03-25T06:12:13.668Z,48.60
2019-03-25T06:13:16.802Z,50.00
2019-03-25T06:14:18.920Z,43.20
2019-03-25T06:15:20.844Z,38.00
2019-03-25T06:16:22.537Z,39.40
2019-03-25T06:17:24.735Z,44.00
2019-03-25T06:18:27.946Z,40.60
2019-03-25T06:19:29.966Z,38.80
2019-03-25T06:20:32.161Z,34.40
2019-03-25T06:21:34.518Z,36.60
2019-03-25T06:22:36.889Z,35.00
2019-03-25T06:23:39.133Z,32.20
2019-03-25T06:24:41.281Z,33.00
2019-03-25T06:25:43.322Z,33.40
2019-03-25T06:26:45.364Z,33.40
2019-03-25T06:27:47.330Z,34.20
2019-03-25T06:28:49.420Z,34.40
2019-03-25T06:29:51.651Z,34.00
2019-03-25T06:30:53.314Z,34.00
2019-03-25T06:31:55.397Z,35.60
2019-03-25T06:32:58.580Z,36.00
2019-03-25T06:34:00.242Z,37.20
2019-03-25T06:35:09.076Z,38.60
2019-03-25T06:36:11.512Z,36.60
2019-03-25T06:37:13.948Z,36.00
2019-03-25T06:38:16.195Z,37.80
2019-03-25T06:39:18.314Z,37.60
2019-03-25T06:40:20.793Z,36.60
2019-03-25T06:41:23.101Z,36.20
2019-03-25T06:42:25.066Z,37.00
2019-03-25T06:43:27.065Z,37.40
2019-03-25T06:44:29.675Z,37.40
2019-03-25T06:45:31.913Z,37.40
2019-03-25T06:46:36.571Z,38.20
2019-03-25T06:47:40.064Z,35.80
2019-03-25T06:48:41.816Z,40.20
2019-03-25T06:49:43.877Z,35.80
2019-03-25T06:50:46.033Z,32.80
2019-03-25T06:51:48.291Z,35.80
2019-03-25T06:52:50.087Z,35.20
2019-03-25T06:53:52.219Z,32.00
2019-03-25T06:54:54.273Z,32.80
2019-03-25T06:55:56.349Z,26.20
2019-03-25T06:56:58.289Z,29.80
2019-03-25T06:58:00.452Z,31.80
2019-03-25T06:59:02.578Z,28.20
2019-03-25T07:00:07.739Z,30.20
2019-03-25T07:01:09.690Z,24.00
2019-03-25T07:02:12.028Z,23.00
2019-03-25T07:03:14.258Z,24.40
2019-03-25T07:04:16.066Z,23.60
2019-03-25T07:05:18.019Z,27.60
2019-03-25T07:06:19.734Z,28.60
2019-03-25T07:07:21.614Z,22.80
2019-03-25T07:08:24.652Z,25.20
2019-03-25T07:09:26.654Z,25.60
2019-03-25T07:10:33.880Z,21.20
2019-03-25T07:11:38.712Z,21.80
2019-03-25T07:12:40.876Z,22.20
2019-03-25T07:13:43.188Z,23.40
2019-03-25T07:14:45.608Z,23.40
2019-03-25T07:15:47.806Z,23.00
2019-03-25T07:16:49.888Z,20.20
2019-03-25T07:17:51.936Z,21.80
2019-03-25T07:18:54.677Z,18.80
2019-03-25T07:19:56.609Z,20.60
2019-03-25T07:20:59.846Z,19.80
2019-03-25T07:22:01.600Z,21.60
2019-03-25T07:23:03.898Z,21.00
2019-03-25T07:24:05.974Z,18.00
2019-03-25T07:25:07.971Z,18.00
2019-03-25T07:26:10.251Z,19.40
2019-03-25T07:27:12.068Z,20.40
2019-03-25T07:28:14.114Z,17.80
2019-03-25T07:29:16.324Z,19.40
2019-03-25T07:30:18.566Z,21.80
2019-03-25T07:31:20.700Z,20.80
2019-03-25T07:32:22.705Z,16.80
2019-03-25T07:33:25.031Z,15.20
2019-03-25T07:34:27.139Z,15.40
2019-03-25T07:35:29.206Z,16.80
2019-03-25T07:36:31.352Z,17.00
2019-03-25T07:37:33.101Z,20.00
2019-03-25T07:38:35.087Z,19.40
2019-03-25T07:39:36.851Z,17.00
2019-03-25T07:40:38.963Z,16.80
2019-03-25T07:41:41.077Z,20.20
2019-03-25T07:42:43.138Z,21.60
2019-03-25T07:43:45.222Z,22.80
2019-03-25T07:44:47.384Z,18.00
2019-03-25T07:45:49.082Z,22.20
2019-03-25T07:46:51.051Z,19.00
2019-03-25T07:47:53.197Z,19.00
2019-03-25T07:48:55.165Z,18.80
2019-03-25T07:49:57.197Z,18.40
2019-03-25T07:50:59.378Z,23.00
2019-03-25T07:52:01.507Z,18.20
2019-03-25T07:53:03.646Z,17.40
2019-03-25T07:54:05.833Z,16.60
2019-03-25T07:55:08.253Z,18.20
2019-03-25T07:56:10.262Z,16.40
2019-03-25T07:57:12.622Z,18.00
2019-03-25T07:58:14.577Z,13.00
2019-03-25T07:59:18.129Z,12.80
2019-03-25T08:00:21.349Z,14.20
2019-03-25T08:01:23.480Z,15.80
2019-03-25T08:02:25.598Z,15.20
2019-03-25T08:03:28.624Z,18.40
2019-03-25T08:04:31.044Z,14.00
2019-03-25T08:05:33.308Z,19.80
2019-03-25T08:06:35.318Z,16.00
2019-03-25T08:07:37.580Z,18.60
2019-03-25T08:08:39.718Z,15.60
2019-03-25T08:09:42.004Z,13.20
2019-03-25T08:10:44.350Z,16.60
2019-03-25T08:11:46.652Z,15.00
2019-03-25T08:12:48.738Z,15.60
2019-03-25T08:13:50.959Z,13.60
2019-03-25T08:14:53.330Z,12.20
2019-03-25T08:15:55.190Z,16.80
2019-03-25T08:16:57.124Z,16.20
2019-03-25T08:17:59.899Z,16.40
2019-03-25T08:19:01.625Z,15.00
2019-03-25T08:20:06.520Z,16.60
2019-03-25T08:21:08.618Z,15.60
2019-03-25T08:22:10.345Z,17.80
2019-03-25T08:23:12.328Z,18.20
2019-03-25T08:24:14.513Z,16.80
2019-03-25T08:25:17.048Z,17.80
2019-03-25T08:26:19.045Z,18.00
2019-03-25T08:27:20.701Z,16.20
2019-03-25T08:28:22.839Z,21.20
2019-03-25T08:29:25.223Z,19.80
2019-03-25T08:30:27.706Z,23.40
2019-03-25T08:31:30.117Z,20.40
2019-03-25T08:32:34.185Z,21.00
2019-03-25T08:33:36.151Z,19.20
2019-03-25T08:34:38.557Z,15.40
2019-03-25T08:35:40.857Z,15.20
2019-03-25T08:36:43.131Z,21.80
2019-03-25T08:37:45.311Z,17.00
2019-03-25T08:38:47.502Z,16.60
2019-03-25T08:39:49.267Z,19.20
2019-03-25T08:40:51.353Z,16.20
2019-03-25T08:41:53.416Z,19.00
2019-03-25T08:42:55.197Z,15.80
2019-03-25T08:43:57.022Z,17.20
2019-03-25T08:44:59.199Z,19.00
2019-03-25T08:46:01.271Z,18.40
2019-03-25T08:47:03.427Z,21.20
2019-03-25T08:48:05.466Z,17.80
2019-03-25T08:49:07.280Z,15.20
2019-03-25T08:50:10.401Z,23.20
2019-03-25T08:51:12.739Z,20.40
2019-03-25T08:52:14.507Z,19.00
2019-03-25T08:53:16.565Z,21.00
2019-03-25T08:54:18.265Z,20.80
2019-03-25T08:55:20.449Z,21.80
2019-03-25T08:56:22.676Z,15.80
2019-03-25T08:57:24.460Z,18.20
2019-03-25T08:58:26.564Z,20.40
2019-03-25T08:59:28.583Z,21.60
2019-03-25T09:00:30.344Z,17.40
2019-03-25T09:01:32.666Z,18.20
2019-03-25T09:02:34.706Z,17.00
2019-03-25T09:03:36.714Z,18.60
2019-03-25T09:04:38.778Z,21.20
2019-03-25T09:05:41.136Z,22.00
2019-03-25T09:06:43.254Z,19.80
2019-03-25T09:07:45.636Z,19.00
2019-03-25T09:08:48.299Z,19.60
2019-03-25T09:09:50.051Z,19.00
2019-03-25T09:10:52.814Z,19.00
2019-03-25T09:11:55.049Z,18.00
2019-03-25T09:12:56.808Z,20.00
2019-03-25T09:13:58.977Z,18.60
2019-03-25T09:15:00.976Z,21.40
2019-03-25T09:16:02.784Z,21.00
2019-03-25T09:17:05.252Z,17.00
2019-03-25T09:18:07.017Z,19.60
2019-03-25T09:19:09.115Z,22.20
2019-03-25T09:20:12.555Z,18.80
2019-03-25T09:21:14.521Z,14.00
2019-03-25T09:22:16.713Z,16.60
2019-03-25T09:23:19.615Z,17.80
2019-03-25T09:24:21.937Z,15.60
2019-03-25T09:25:23.686Z,20.00
2019-03-25T09:26:25.951Z,20.00
2019-03-25T09:27:28.216Z,17.20
2019-03-25T09:28:30.287Z,17.20
2019-03-25T09:29:32.351Z,18.00
2019-03-25T09:30:55.109Z,16.40
2019-03-25T09:31:57.402Z,15.20
2019-03-25T09:32:59.561Z,16.00
2019-03-25T09:34:01.535Z,16.40
2019-03-25T09:35:06.035Z,15.60
2019-03-25T09:36:08.122Z,18.80
2019-03-25T09:37:10.279Z,17.20
2019-03-25T09:38:12.863Z,15.00
2019-03-25T09:39:14.923Z,16.60
2019-03-25T09:40:17.126Z,16.20
2019-03-25T09:41:20.200Z,16.40
2019-03-25T09:42:24.499Z,16.00
2019-03-25T09:43:26.388Z,16.20
2019-03-25T09:44:28.498Z,16.60
2019-03-25T09:45:30.465Z,21.20
2019-03-25T09:46:32.654Z,15.80
2019-03-25T09:47:37.712Z,15.00
2019-03-25T09:48:39.140Z,21.60
2019-03-25T09:49:41.348Z,13.20
2019-03-25T09:50:43.506Z,15.00
2019-03-25T09:51:46.360Z,14.20
2019-03-25T09:52:48.415Z,14.80
2019-03-25T09:53:50.520Z,16.60
2019-03-25T09:54:52.529Z,17.60
2019-03-25T09:55:54.590Z,16.80
2019-03-25T09:56:56.875Z,17.80
2019-03-25T09:57:58.711Z,18.40
2019-03-25T09:59:02.791Z,18.00
2019-03-25T10:00:10.678Z,20.00
2019-03-25T10:01:14.189Z,19.60
2019-03-25T10:02:16.303Z,17.60
2019-03-25T10:03:18.527Z,21.00
2019-03-25T10:04:20.880Z,21.40
2019-03-25T10:05:22.875Z,19.60
2019-03-25T10:06:24.963Z,18.00
2019-03-25T10:07:28.406Z,21.00
2019-03-25T10:08:30.787Z,20.40
2019-03-25T10:09:32.491Z,19.60
2019-03-25T10:10:34.543Z,21.40
2019-03-25T10:11:36.815Z,18.40
2019-03-25T10:12:38.651Z,21.20
2019-03-25T10:13:40.535Z,19.60
2019-03-25T10:14:44.039Z,19.80
2019-03-25T10:15:46.329Z,18.20
2019-03-25T10:16:48.547Z,20.80
2019-03-25T10:17:51.004Z,20.20
2019-03-25T10:18:53.055Z,22.00
2019-03-25T10:19:55.191Z,22.80
2019-03-25T10:20:57.255Z,18.60
2019-03-25T10:21:59.340Z,15.80
2019-03-25T10:23:01.499Z,20.00
2019-03-25T10:24:04.251Z,18.80
2019-03-25T10:25:07.413Z,18.40
2019-03-25T10:26:09.660Z,16.80
2019-03-25T10:27:11.337Z,15.80
2019-03-25T10:28:13.011Z,17.40
2019-03-25T10:29:15.142Z,13.60
2019-03-25T10:30:18.040Z,14.00
2019-03-25T10:31:19.989Z,14.00
2019-03-25T10:32:22.162Z,14.80
2019-03-25T10:33:24.033Z,13.80
2019-03-25T10:34:26.259Z,15.80
2019-03-25T10:35:28.439Z,12.00
2019-03-25T10:36:31.727Z,13.40
2019-03-25T10:37:34.177Z,12.60
2019-03-25T10:38:36.252Z,12.20
2019-03-25T10:39:38.616Z,16.00
2019-03-25T10:40:40.682Z,12.00
2019-03-25T10:41:42.644Z,15.20
2019-03-25T10:42:44.628Z,12.00
2019-03-25T10:43:46.848Z,10.60
2019-03-25T10:44:49.100Z,11.20
2019-03-25T10:45:51.055Z,10.80
2019-03-25T10:46:53.268Z,14.00
2019-03-25T10:47:55.592Z,13.00
2019-03-25T10:48:57.458Z,9.80
2019-03-25T10:49:59.597Z,11.60
2019-03-25T10:51:01.580Z,12.80
2019-03-25T10:52:04.144Z,11.00
2019-03-25T10:53:06.805Z,12.40
2019-03-25T10:54:08.843Z,13.60
2019-03-25T10:55:11.005Z,10.60
2019-03-25T10:56:13.233Z,12.00
2019-03-25T10:57:15.803Z,12.40
2019-03-25T10:58:17.591Z,11.00
2019-03-25T10:59:19.931Z,10.80
2019-03-25T11:00:22.209Z,13.20
2019-03-25T11:01:24.806Z,11.20
2019-03-25T11:02:26.941Z,13.80
2019-03-25T11:03:28.605Z,9.40
2019-03-25T11:04:30.639Z,10.60
2019-03-25T11:05:32.886Z,18.00
2019-03-25T11:06:34.946Z,20.20
2019-03-25T11:07:39.141Z,19.00
2019-03-25T11:08:41.641Z,24.40
2019-03-25T11:09:43.565Z,17.40
2019-03-25T11:10:45.666Z,14.20
2019-03-25T11:11:47.933Z,14.20
2019-03-25T11:12:51.526Z,13.80
2019-03-25T11:13:53.612Z,17.60
2019-03-25T11:14:55.698Z,18.20
2019-03-25T11:15:58.214Z,16.40
2019-03-25T11:17:00.251Z,15.00
2019-03-25T11:18:02.710Z,17.00
2019-03-25T11:19:06.079Z,14.40
2019-03-25T11:20:09.000Z,11.60
2019-03-25T11:21:11.042Z,15.00
2019-03-25T11:22:12.846Z,15.20
2019-03-25T11:23:14.903Z,18.00
2019-03-25T11:24:18.142Z,19.60
2019-03-25T11:25:20.351Z,20.20
2019-03-25T11:26:22.594Z,14.60
2019-03-25T11:27:24.328Z,14.20
2019-03-25T11:28:26.570Z,23.00
2019-03-25T11:29:28.519Z,20.40
2019-03-25T11:30:52.198Z,23.00
2019-03-25T11:31:54.344Z,19.80
2019-03-25T11:32:56.295Z,24.40
2019-03-25T11:33:58.573Z,20.80
2019-03-25T11:35:05.712Z,18.60
2019-03-25T11:36:09.042Z,18.80
2019-03-25T11:37:10.784Z,17.80
2019-03-25T11:38:12.733Z,18.60
2019-03-25T11:39:14.725Z,17.60
2019-03-25T11:40:17.108Z,21.80
2019-03-25T11:41:19.063Z,20.20
2019-03-25T11:42:21.204Z,20.00
2019-03-25T11:43:24.651Z,20.80
2019-03-25T11:44:28.981Z,22.60
2019-03-25T11:45:30.830Z,21.60
2019-03-25T11:46:33.084Z,20.60
2019-03-25T11:47:35.264Z,22.60
2019-03-25T11:48:37.474Z,22.60
2019-03-25T11:49:39.458Z,25.20
2019-03-25T11:50:42.122Z,24.00
2019-03-25T11:51:44.387Z,20.60
2019-03-25T11:52:46.567Z,23.80
2019-03-25T11:53:48.641Z,14.80
2019-03-25T11:54:50.531Z,18.40
2019-03-25T11:55:52.634Z,24.40
2019-03-25T11:56:54.913Z,20.40
2019-03-25T11:57:56.676Z,19.00
2019-03-25T11:58:58.944Z,20.00
2019-03-25T12:00:01.366Z,19.20
2019-03-25T12:01:03.451Z,22.00
2019-03-25T12:02:05.652Z,19.60
2019-03-25T12:03:07.641Z,16.60
2019-03-25T12:04:10.644Z,20.20
2019-03-25T12:05:13.077Z,22.00
2019-03-25T12:06:15.392Z,20.60
2019-03-25T12:07:17.966Z,22.00
2019-03-25T12:08:20.184Z,16.00
2019-03-25T12:09:22.037Z,20.40
2019-03-25T12:10:24.174Z,21.00
2019-03-25T12:11:26.162Z,20.80
2019-03-25T12:12:28.472Z,17.80
2019-03-25T12:13:30.368Z,18.60
2019-03-25T12:14:32.355Z,18.00
2019-03-25T12:15:34.574Z,15.60
2019-03-25T12:16:36.784Z,18.00
2019-03-25T12:17:39.007Z,17.60
2019-03-25T12:18:40.853Z,16.80
2019-03-25T12:19:42.787Z,9.00
2019-03-25T12:20:44.752Z,9.60
2019-03-25T12:21:46.940Z,16.20
2019-03-25T12:22:49.159Z,15.00
2019-03-25T12:23:51.149Z,16.80
2019-03-25T12:24:53.211Z,15.00
2019-03-25T12:25:55.569Z,14.00
2019-03-25T12:26:58.279Z,15.80
2019-03-25T12:28:00.390Z,14.40
2019-03-25T12:29:02.499Z,9.80
2019-03-25T12:30:08.922Z,6.80
2019-03-25T12:31:10.675Z,14.00
2019-03-25T12:32:12.754Z,14.80
2019-03-25T12:33:14.617Z,16.40
2019-03-25T12:34:16.774Z,5.00
2019-03-25T12:35:19.161Z,8.00
2019-03-25T12:36:21.273Z,13.20
2019-03-25T12:37:23.406Z,10.20
2019-03-25T12:38:25.556Z,14.00
2019-03-25T12:39:27.788Z,15.40
2019-03-25T12:40:30.154Z,13.60
2019-03-25T12:41:32.205Z,12.80
2019-03-25T12:42:34.444Z,10.40
2019-03-25T12:43:36.466Z,13.40
2019-03-25T12:44:38.486Z,18.20
2019-03-25T12:45:40.693Z,16.00
2019-03-25T12:46:42.775Z,13.80
2019-03-25T12:47:44.894Z,15.00
2019-03-25T12:48:46.819Z,12.80
2019-03-25T12:49:48.760Z,10.40
2019-03-25T12:50:50.829Z,5.40
2019-03-25T12:51:52.821Z,11.20
2019-03-25T12:52:55.895Z,13.60
2019-03-25T12:53:57.946Z,6.80
2019-03-25T12:54:59.616Z,11.80
2019-03-25T12:56:01.834Z,9.60
2019-03-25T12:57:03.891Z,11.00
2019-03-25T12:58:07.453Z,11.40
2019-03-25T12:59:09.600Z,12.40
2019-03-25T13:00:11.999Z,14.40
2019-03-25T13:01:14.037Z,12.40
2019-03-25T13:02:15.982Z,4.80
2019-03-25T13:03:17.942Z,7.20
2019-03-25T13:04:19.605Z,4.00
2019-03-25T13:05:21.574Z,8.20
2019-03-25T13:06:23.981Z,6.00
2019-03-25T13:07:27.398Z,10.40
2019-03-25T13:08:33.328Z,14.00
2019-03-25T13:09:33.175Z,9.00
2019-03-25T13:10:35.379Z,11.80
2019-03-25T13:11:37.377Z,8.60
2019-03-25T13:12:39.286Z,7.60
2019-03-25T13:13:41.286Z,10.60
2019-03-25T13:14:43.509Z,14.80
2019-03-25T13:15:47.190Z,3.40
2019-03-25T13:16:49.192Z,9.00
2019-03-25T13:17:51.384Z,9.00
2019-03-25T13:18:53.398Z,12.00
2019-03-25T13:19:55.578Z,11.40
2019-03-25T13:20:57.560Z,8.00
2019-03-25T13:21:59.882Z,12.40
2019-03-25T13:23:03.157Z,11.60
2019-03-25T13:24:05.500Z,14.60